This is the latest recevied weather packets stored in our database for station/object LTAC. If no packets are shown the sender has not sent any weather packets the latest 10 day(s).
| Time | Temp. | Humidity | Pressure | Rain* | Wind** | Luminosity | Snow |
|---|---|---|---|---|---|---|---|
| 1777757405 | 5° C | 80% | 1012 hPa | - | - | - | - |
| 1777756504 | 5° C | 80% | 1012 hPa | - | - | - | - |
| 1777755604 | 5° C | 80% | 1012 hPa | - | - | - | - |
| 1777754704 | 6.11° C | 75% | 1012 hPa | - | - | - | - |
| 1777752004 | 5° C | 80% | 1012 hPa | - | - | - | - |
| 1777751104 | 5° C | 86% | 1012 hPa | - | - | - | - |
| 1777750204 | 5° C | 86% | 1012 hPa | - | - | - | - |
| 1777749304 | 5° C | 86% | 1013 hPa | - | - | - | - |
| 1777748405 | 5° C | 86% | 1013 hPa | - | - | - | - |
| 1777746604 | 6.11° C | 75% | 1013 hPa | - | - | - | - |
| 1777745704 | 6.11° C | 75% | 1012 hPa | - | - | - | - |
| 1777744805 | 6.11° C | 75% | 1012 hPa | - | - | - | - |
| 1777743904 | 6.11° C | 81% | 1012 hPa | - | - | - | - |
| 1777743004 | 6.11° C | 81% | 1012 hPa | - | - | - | - |
| 1777742105 | 6.11° C | 81% | 1012 hPa | - | - | - | - |
| 1777739404 | 6.11° C | 81% | 1012 hPa | - | - | - | - |
| 1777738504 | 6.11° C | 81% | 1012 hPa | - | - | - | - |
| 1777737604 | 6.11° C | 81% | 1012 hPa | - | - | - | - |
| 1777736704 | 6.11° C | 87% | 1012 hPa | - | - | - | - |
| 1777735804 | 6.11° C | 87% | 1012 hPa | - | - | - | - |
| 1777734904 | 6.11° C | 87% | 1013 hPa | - | - | - | - |
| 1777731303 | 7.22° C | 70% | 1012 hPa | - | - | - | - |
| 1777729504 | 7.22° C | 70% | 1012 hPa | - | - | - | - |
| 1777727704 | 7.78° C | 65% | 1013 hPa | - | - | - | - |
| 1777725904 | 7.22° C | 70% | 1013 hPa | - | - | - | - |
* Rain since midnight (hover to see other rain measurements)
** Current wind speed in m/s (hover to see current wind gust speed)